Time;durP1;ratioP1;P1;durP2;ratioP2;P2;SDS_P1;SDS_P2;PMS_P1;PMS_P2;Temp;Humidity;BMP_temperature;BMP_pressure;BME280_temperature;BME280_humidity;BME280_pressure;Samples;Min_cycle;Max_cycle;Signal;HPM_P1;HPM_P2
2022/05/09 00:02:05;;;;;;;10.47;3.60;;;10.20;1.00;;;;;;5097285;28;20289;-80
2022/05/09 00:04:33;;;;;;;6.53;3.27;;;10.20;1.00;;;;;;5081397;28;20196;-80
2022/05/09 00:07:02;;;;;;;12.13;4.13;;;10.20;1.00;;;;;;5076141;28;20271;-80
2022/05/09 00:09:29;;;;;;;9.33;3.60;;;10.10;1.00;;;;;;5092762;28;20206;-82
2022/05/09 00:11:56;;;;;;;9.23;4.03;;;10.10;1.00;;;;;;5091718;28;20718;-85
2022/05/09 00:14:24;;;;;;;9.70;3.43;;;10.10;1.00;;;;;;5092567;28;20239;-83
2022/05/09 00:16:52;;;;;;;9.33;3.90;;;10.10;1.00;;;;;;5077470;28;20589;-81
2022/05/09 00:19:20;;;;;;;8.97;3.40;;;10.10;1.00;;;;;;5090807;28;20202;-80
2022/05/09 00:21:50;;;;;;;8.30;3.67;;;10.00;1.00;;;;;;5072144;28;20221;-81
2022/05/09 00:24:18;;;;;;;9.40;3.60;;;10.00;1.00;;;;;;5073577;28;20532;-82
2022/05/09 00:26:46;;;;;;;12.07;3.87;;;10.00;1.00;;;;;;5094206;28;20213;-83
2022/05/09 00:29:15;;;;;;;9.27;3.53;;;9.90;1.00;;;;;;5064809;28;20182;-82
2022/05/09 00:31:44;;;;;;;8.27;3.70;;;10.00;1.00;;;;;;5076187;28;20205;-79
2022/05/09 00:34:12;;;;;;;13.30;3.97;;;9.90;1.00;;;;;;5063631;28;20201;-79
2022/05/09 00:36:39;;;;;;;8.40;3.60;;;9.90;1.00;;;;;;5118361;27;20221;-80
2022/05/09 00:39:06;;;;;;;11.77;3.67;;;9.90;1.00;;;;;;5070935;28;20471;-80
2022/05/09 00:41:40;;;;;;;10.20;3.70;;;9.80;1.00;;;;;;5087159;28;20548;-80
2022/05/09 00:44:12;;;;;;;8.67;3.80;;;9.90;1.00;;;;;;5101582;28;20198;-79
2022/05/09 00:46:42;;;;;;;13.43;3.90;;;9.80;1.00;;;;;;5104486;28;20217;-78
2022/05/09 00:49:34;;;;;;;7.33;3.93;;;9.80;1.00;;;;;;5100455;28;20576;-79
2022/05/09 00:52:34;;;;;;;8.27;4.20;;;9.70;1.00;;;;;;5088287;28;20213;-79
2022/05/09 00:55:30;;;;;;;6.17;3.90;;;9.70;1.00;;;;;;5099487;28;20202;-79
2022/05/09 00:58:03;;;;;;;8.83;4.10;;;9.70;1.00;;;;;;5073538;27;20199;-81
2022/05/09 01:00:30;;;;;;;13.27;4.23;;;9.70;1.00;;;;;;5090400;27;20706;-82
2022/05/09 01:03:20;;;;;;;10.07;4.07;;;9.60;1.00;;;;;;5105655;27;20182;-79
2022/05/09 01:05:50;;;;;;;6.10;3.43;;;9.60;1.00;;;;;;5099072;27;20221;-78
2022/05/09 01:08:19;;;;;;;12.63;4.03;;;9.50;1.00;;;;;;5100288;27;20346;-79
2022/05/09 01:10:47;;;;;;;10.37;3.77;;;9.60;1.00;;;;;;5101596;27;20189;-77
2022/05/09 01:13:17;;;;;;;7.80;4.10;;;9.50;1.00;;;;;;5088546;27;20215;-79
2022/05/09 01:15:48;;;;;;;9.17;4.83;;;9.50;1.00;;;;;;5070879;27;20676;-78
2022/05/09 01:18:19;;;;;;;8.87;4.00;;;9.50;1.00;;;;;;5084876;27;20669;-78
2022/05/09 01:20:47;;;;;;;8.40;3.77;;;9.50;1.00;;;;;;5085970;27;20211;-79
2022/05/09 01:23:14;;;;;;;9.53;3.90;;;9.40;1.00;;;;;;5119203;27;20254;-77
2022/05/09 01:25:42;;;;;;;8.63;4.83;;;9.40;1.00;;;;;;5099210;27;20245;-79
2022/05/09 01:28:11;;;;;;;12.40;4.27;;;9.40;1.00;;;;;;5102094;27;20201;-78
2022/05/09 01:31:01;;;;;;;8.43;4.10;;;9.30;1.00;;;;;;5100854;27;20593;-78
2022/05/09 01:33:33;;;;;;;9.60;3.77;;;9.30;1.00;;;;;;5100215;27;20682;-78
2022/05/09 01:36:26;;;;;;;8.37;4.27;;;9.30;1.00;;;;;;5103409;27;20207;-78
2022/05/09 01:38:59;;;;;;;11.73;3.97;;;9.30;1.00;;;;;;5101468;27;20208;-78
2022/05/09 01:41:35;;;;;;;8.43;4.00;;;9.30;1.00;;;;;;5102707;27;20212;-77
2022/05/09 01:44:03;;;;;;;9.77;4.10;;;9.20;1.00;;;;;;5083523;27;20197;-79
2022/05/09 01:46:32;;;;;;;8.50;4.07;;;9.30;1.00;;;;;;5104573;27;20288;-79
2022/05/09 01:51:46;;;;;;;13.90;4.53;;;9.20;1.00;;;;;;5089762;27;20673;-78
2022/05/09 01:54:15;;;;;;;16.13;5.00;;;9.10;1.00;;;;;;5102025;27;20212;-80
2022/05/09 01:56:43;;;;;;;6.73;3.80;;;9.10;1.00;;;;;;5104754;27;20220;-78
2022/05/09 01:59:12;;;;;;;10.53;4.77;;;9.10;1.00;;;;;;5097662;28;20241;-78
2022/05/09 02:01:52;;;;;;;8.67;4.30;;;9.10;1.00;;;;;;5099513;28;20206;-77
2022/05/09 02:04:23;;;;;;;13.70;4.17;;;9.10;1.00;;;;;;5100587;28;20220;-78
2022/05/09 02:06:51;;;;;;;10.67;4.27;;;9.00;1.00;;;;;;5098331;28;20287;-79
2022/05/09 02:09:19;;;;;;;9.67;4.47;;;8.90;1.00;;;;;;5088302;28;20187;-79
2022/05/09 02:11:47;;;;;;;14.03;4.73;;;9.00;1.00;;;;;;5083538;28;20190;-78
2022/05/09 02:14:14;;;;;;;8.27;4.20;;;8.90;1.00;;;;;;5101583;27;20244;-78
2022/05/09 02:16:41;;;;;;;10.20;4.20;;;8.90;1.00;;;;;;5079792;28;20205;-79
2022/05/09 02:19:09;;;;;;;9.97;4.07;;;8.90;1.00;;;;;;5065523;28;20205;-78
2022/05/09 02:21:36;;;;;;;9.83;3.77;;;8.90;1.00;;;;;;5099234;28;20665;-79
2022/05/09 02:24:03;;;;;;;11.03;4.60;;;8.90;1.00;;;;;;5092577;28;20248;-77
2022/05/09 02:26:31;;;;;;;7.77;4.40;;;8.80;1.00;;;;;;5094530;28;20252;-78
2022/05/09 02:28:58;;;;;;;8.80;3.90;;;8.80;1.00;;;;;;5094955;28;20557;-78
2022/05/09 02:31:26;;;;;;;9.03;4.30;;;8.80;1.00;;;;;;5095956;28;20195;-77
2022/05/09 02:33:53;;;;;;;9.37;4.13;;;8.80;1.00;;;;;;5080668;28;20201;-78
2022/05/09 02:36:22;;;;;;;9.73;4.40;;;8.70;1.00;;;;;;5094073;28;20201;-79
2022/05/09 02:38:49;;;;;;;8.70;4.43;;;8.70;1.00;;;;;;5098012;28;20263;-78
2022/05/09 02:41:16;;;;;;;9.77;4.83;;;8.70;1.00;;;;;;5097223;28;20256;-79
2022/05/09 02:43:43;;;;;;;10.57;4.63;;;8.70;1.00;;;;;;5098995;28;20259;-78
2022/05/09 02:46:11;;;;;;;11.97;4.83;;;8.60;1.00;;;;;;5095686;28;20325;-77
2022/05/09 02:48:39;;;;;;;10.40;4.80;;;8.70;1.00;;;;;;5079530;28;20203;-77
2022/05/09 02:51:08;;;;;;;7.17;4.87;;;8.60;1.00;;;;;;5099325;28;20200;-79
2022/05/09 02:53:35;;;;;;;9.77;4.93;;;8.50;1.00;;;;;;5051683;28;20201;-78
2022/05/09 02:56:04;;;;;;;12.33;4.83;;;8.30;1.00;;;;;;5094922;28;20208;-78
2022/05/09 02:58:34;;;;;;;8.83;4.90;;;8.30;1.00;;;;;;5078582;28;20260;-82
2022/05/09 03:01:01;;;;;;;10.57;4.73;;;8.30;1.00;;;;;;5077357;28;20213;-78
2022/05/09 03:06:16;;;;;;;11.47;4.60;;;8.20;1.00;;;;;;5089913;28;20218;-80
2022/05/09 03:08:44;;;;;;;10.77;5.10;;;8.20;1.00;;;;;;5075870;28;20247;-81
2022/05/09 03:11:11;;;;;;;14.43;4.97;;;8.10;1.00;;;;;;5093300;28;20597;-80
2022/05/09 03:13:39;;;;;;;7.10;4.03;;;8.10;1.30;;;;;;5088150;28;20232;-79
2022/05/09 03:16:07;;;;;;;6.80;4.47;;;8.10;8.60;;;;;;5062805;28;20732;-81
2022/05/09 03:18:34;;;;;;;8.07;4.43;;;8.10;3.90;;;;;;5077405;28;20195;-79
2022/05/09 03:21:02;;;;;;;8.73;4.33;;;8.00;17.80;;;;;;5074100;28;20214;-78
2022/05/09 03:23:31;;;;;;;9.50;5.03;;;8.10;47.50;;;;;;5111199;27;20197;-82
2022/05/09 03:26:00;;;;;;;10.33;4.87;;;8.00;75.80;;;;;;5089303;28;20208;-79
2022/05/09 03:28:28;;;;;;;11.30;5.10;;;7.80;99.90;;;;;;5098764;28;20201;-79
2022/05/09 03:30:57;;;;;;;11.37;5.07;;;7.80;99.90;;;;;;5062694;28;20212;-80
2022/05/09 03:33:27;;;;;;;12.00;5.23;;;7.90;1.00;;;;;;5061731;28;20199;-78
2022/05/09 03:35:58;;;;;;;11.43;5.73;;;8.10;99.90;;;;;;5118207;27;20261;-78
2022/05/09 03:38:26;;;;;;;11.07;7.43;;;8.40;99.90;;;;;;5082967;28;20237;-79
2022/05/09 03:40:53;;;;;;;14.47;10.90;;;8.60;99.90;;;;;;5078222;28;20221;-80
2022/05/09 03:43:20;;;;;;;15.13;8.43;;;8.80;99.90;;;;;;5067414;28;20242;-79
2022/05/09 03:45:50;;;;;;;14.13;7.57;;;8.90;99.90;;;;;;5058581;28;20251;-79
2022/05/09 03:48:17;;;;;;;13.90;7.47;;;8.90;60.70;;;;;;5090646;28;20200;-79
2022/05/09 03:50:45;;;;;;;20.63;7.63;;;9.00;12.20;;;;;;5073412;28;20212;-80
2022/05/09 03:53:14;;;;;;;11.03;6.33;;;9.20;42.30;;;;;;5089918;28;20197;-82
2022/05/09 03:55:41;;;;;;;9.23;5.57;;;9.30;1.00;;;;;;5077611;28;20246;-80
2022/05/09 03:58:09;;;;;;;8.60;5.03;;;9.50;1.00;;;;;;5057937;28;20208;-78
2022/05/09 04:00:38;;;;;;;14.07;8.90;;;10.20;1.00;;;;;;5115263;27;20181;-78
2022/05/09 04:03:06;;;;;;;16.57;11.87;;;10.60;1.00;;;;;;5117993;27;20258;-79
2022/05/09 04:05:35;;;;;;;8.67;6.40;;;10.50;1.00;;;;;;5100785;28;20192;-80
2022/05/09 04:08:07;;;;;;;12.87;6.80;;;10.40;1.00;;;;;;5083675;28;20615;-78
2022/05/09 04:10:36;;;;;;;9.17;5.53;;;10.50;1.00;;;;;;5097002;28;20189;-79
2022/05/09 04:13:04;;;;;;;12.17;6.90;;;10.70;1.00;;;;;;5085346;28;20205;-80
2022/05/09 04:18:21;;;;;;;18.37;11.97;;;11.20;1.00;;;;;;5102317;28;20898;-78
2022/05/09 04:20:50;;;;;;;16.67;10.50;;;11.20;1.00;;;;;;5100838;28;20563;-78
2022/05/09 04:23:18;;;;;;;14.87;9.70;;;11.40;1.00;;;;;;5099414;28;20211;-78
2022/05/09 04:25:46;;;;;;;9.90;6.37;;;11.40;1.00;;;;;;5076650;28;20229;-77
2022/05/09 04:28:16;;;;;;;11.23;7.93;;;11.40;1.00;;;;;;5075380;28;20210;-79
2022/05/09 04:30:46;;;;;;;12.27;3.77;;;11.50;1.00;;;;;;5089977;28;20216;-78
2022/05/09 04:33:17;;;;;;;8.40;4.17;;;11.90;1.00;;;;;;5074242;28;20245;-81
2022/05/09 04:35:44;;;;;;;11.43;5.10;;;11.20;1.00;;;;;;5080294;28;20284;-79
2022/05/09 04:38:21;;;;;;;6.83;4.27;;;11.20;1.00;;;;;;5071588;28;20208;-79
2022/05/09 04:40:51;;;;;;;7.23;3.93;;;11.20;1.00;;;;;;5090718;28;20240;-79
2022/05/09 04:43:23;;;;;;;7.20;3.90;;;10.80;1.00;;;;;;5094216;28;20250;-78
2022/05/09 04:45:55;;;;;;;6.73;4.20;;;11.30;1.00;;;;;;5079899;28;20211;-78
2022/05/09 04:48:22;;;;;;;6.90;3.87;;;12.00;1.00;;;;;;5095432;28;20205;-79
2022/05/09 04:50:50;;;;;;;15.03;4.83;;;12.80;99.90;;;;;;5092982;28;20635;-77
2022/05/09 04:53:17;;;;;;;10.13;4.67;;;13.60;99.90;;;;;;5111564;28;20192;-79
2022/05/09 04:55:45;;;;;;;7.30;4.50;;;14.50;99.90;;;;;;5091487;28;20190;-76
2022/05/09 04:58:18;;;;;;;8.30;4.63;;;15.40;99.90;;;;;;5079714;28;20201;-77
2022/05/09 05:00:45;;;;;;;10.43;5.30;;;16.60;99.90;;;;;;5077974;28;20206;-78
2022/05/09 05:03:13;;;;;;;8.15;4.15;;;16.90;99.90;;;;;;5081116;28;20684;-78
2022/05/09 05:05:42;;;;;;;6.88;3.50;;;17.10;99.90;;;;;;5077425;28;20726;-77
2022/05/09 05:08:13;;;;;;;7.00;3.67;;;17.00;99.90;;;;;;5068216;28;20222;-77
2022/05/09 05:10:41;;;;;;;13.25;3.78;;;17.20;99.90;;;;;;5070620;28;20201;-77
2022/05/09 05:13:09;;;;;;;10.63;3.90;;;17.30;99.90;;;;;;5090901;28;20202;-77
2022/05/09 05:15:36;;;;;;;11.15;3.80;;;17.60;99.90;;;;;;5077095;28;20197;-78
2022/05/09 05:18:03;;;;;;;7.05;3.70;;;17.80;99.90;;;;;;5092410;28;20197;-77
2022/05/09 05:20:31;;;;;;;6.95;3.63;;;17.50;99.90;;;;;;5095519;28;20211;-77
2022/05/09 05:22:58;;;;;;;11.38;3.88;;;18.20;99.90;;;;;;5074163;27;20242;-78
2022/05/09 05:25:28;;;;;;;7.07;4.03;;;18.00;99.90;;;;;;5098409;27;20285;-76
2022/05/09 05:27:57;;;;;;;9.55;3.90;;;18.30;99.90;;;;;;5114854;27;20221;-78
2022/05/09 05:30:24;;;;;;;13.88;3.83;;;18.10;99.90;;;;;;5102540;27;20191;-78
2022/05/09 05:32:51;;;;;;;8.90;3.88;;;18.50;99.90;;;;;;5115583;27;20223;-77
2022/05/09 05:35:23;;;;;;;10.05;4.30;;;19.00;99.90;;;;;;5110599;27;20178;-78
2022/05/09 05:37:50;;;;;;;9.20;4.20;;;19.30;99.90;;;;;;5078721;27;20232;-77
2022/05/09 05:40:18;;;;;;;12.05;4.45;;;18.90;99.90;;;;;;5097453;27;20649;-78
2022/05/09 05:42:47;;;;;;;10.40;4.03;;;18.10;99.90;;;;;;5082551;27;20201;-77
2022/05/09 05:45:17;;;;;;;9.60;4.07;;;19.30;99.90;;;;;;5087814;27;20308;-77
2022/05/09 05:47:46;;;;;;;11.68;4.20;;;19.90;99.90;;;;;;5097427;27;20240;-77
2022/05/09 05:50:15;;;;;;;10.00;4.15;;;19.30;99.90;;;;;;5085067;27;20228;-77
2022/05/09 05:52:42;;;;;;;8.93;3.65;;;18.70;99.90;;;;;;5097966;27;20807;-79
2022/05/09 05:55:10;;;;;;;8.25;3.78;;;18.40;99.90;;;;;;5115475;27;20671;-78
2022/05/09 05:57:39;;;;;;;8.55;4.05;;;18.40;99.90;;;;;;5084061;27;20232;-78
2022/05/09 06:00:11;;;;;;;7.88;3.88;;;19.70;99.90;;;;;;5119231;27;20228;-78
2022/05/09 06:02:44;;;;;;;7.47;3.50;;;19.80;99.90;;;;;;5101289;27;20193;-78
2022/05/09 06:05:13;;;;;;;6.47;3.63;;;20.50;99.90;;;;;;5089048;28;20205;-78
2022/05/09 06:07:41;;;;;;;11.10;3.92;;;22.00;99.90;;;;;;5089376;27;20279;-77
2022/05/09 06:10:10;;;;;;;7.28;3.95;;;22.50;99.90;;;;;;5092238;27;20201;-78
2022/05/09 06:12:37;;;;;;;5.55;3.10;;;23.10;99.90;;;;;;5081294;27;20202;-76
2022/05/09 06:18:14;;;;;;;8.70;3.75;;;23.80;99.90;;;;;;5051860;28;20203;-77
2022/05/09 06:20:43;;;;;;;9.15;3.65;;;21.90;99.90;;;;;;5050649;28;20309;-77
2022/05/09 06:23:13;;;;;;;6.60;3.10;;;23.50;99.90;;;;;;5066443;27;20205;-77
2022/05/09 06:25:43;;;;;;;10.05;3.58;;;23.90;99.90;;;;;;5088044;27;20212;-77
2022/05/09 06:28:10;;;;;;;6.10;3.40;;;25.00;99.90;;;;;;5087219;27;20213;-77
2022/05/09 06:30:38;;;;;;;8.38;3.50;;;22.70;99.90;;;;;;5087394;27;20488;-78
2022/05/09 06:33:06;;;;;;;6.82;3.50;;;23.20;99.90;;;;;;5107150;27;20194;-78
2022/05/09 06:35:44;;;;;;;9.45;3.58;;;23.30;99.90;;;;;;5082882;28;20215;-77
2022/05/09 06:38:16;;;;;;;5.22;3.15;;;24.80;99.90;;;;;;5084129;27;20205;-79
2022/05/09 06:40:44;;;;;;;8.90;3.70;;;22.60;99.90;;;;;;5081379;27;20320;-78
2022/05/09 06:43:11;;;;;;;10.75;3.75;;;23.60;99.90;;;;;;5110440;27;20284;-77
2022/05/09 06:45:40;;;;;;;8.25;4.50;;;23.30;99.90;;;;;;5090613;27;20255;-76
2022/05/09 06:48:08;;;;;;;7.28;3.63;;;24.90;99.90;;;;;;5106458;27;20225;-78
2022/05/09 06:50:38;;;;;;;10.60;3.63;;;24.40;99.90;;;;;;5079446;28;20890;-76
2022/05/09 06:53:06;;;;;;;11.50;3.47;;;24.20;99.90;;;;;;5108298;27;20197;-76
2022/05/09 06:55:44;;;;;;;8.45;4.03;;;23.40;99.90;;;;;;5092356;27;20187;-76
2022/05/09 06:58:14;;;;;;;5.28;3.05;;;23.80;99.90;;;;;;5060887;28;20205;-76
2022/05/09 07:00:41;;;;;;;6.32;3.22;;;24.40;99.90;;;;;;5097264;28;20240;-78
2022/05/09 07:03:08;;;;;;;10.65;4.03;;;24.30;99.90;;;;;;5092233;28;20242;-77
2022/05/09 07:05:38;;;;;;;8.18;3.65;;;23.50;99.90;;;;;;5099706;27;20204;-77
2022/05/09 07:08:09;;;;;;;6.93;3.50;;;24.70;99.90;;;;;;5087511;27;20225;-77
2022/05/09 07:10:38;;;;;;;8.15;3.35;;;25.00;99.90;;;;;;5067036;27;20196;-77
2022/05/09 07:13:05;;;;;;;8.35;3.33;;;27.20;99.90;;;;;;5091634;27;20210;-75
2022/05/09 07:15:34;;;;;;;7.32;3.50;;;28.50;99.90;;;;;;5088025;27;20225;-76
2022/05/09 07:18:03;;;;;;;7.15;4.72;;;26.50;99.90;;;;;;5084809;27;20246;-77
2022/05/09 07:20:33;;;;;;;5.88;3.70;;;28.70;99.90;;;;;;5086646;27;20204;-76
2022/05/09 07:23:06;;;;;;;7.57;4.78;;;29.90;99.90;;;;;;5081078;27;20212;-76
2022/05/09 07:25:33;;;;;;;9.50;3.95;;;29.60;99.90;;;;;;5086051;28;20189;-74
2022/05/09 07:28:00;;;;;;;8.05;3.55;;;29.20;99.90;;;;;;5104606;28;20271;-74
2022/05/09 07:30:28;;;;;;;7.43;3.70;;;31.10;99.90;;;;;;5090872;27;20243;-75
2022/05/09 07:32:55;;;;;;;7.88;3.28;;;31.70;99.90;;;;;;5071986;27;20224;-74
2022/05/09 07:35:23;;;;;;;8.77;3.25;;;31.00;99.90;;;;;;5104108;27;20198;-75
2022/05/09 07:37:50;;;;;;;7.70;3.47;;;28.40;99.90;;;;;;5105777;27;20204;-75
2022/05/09 07:40:18;;;;;;;5.30;2.80;;;30.40;99.90;;;;;;5079835;27;20217;-73
2022/05/09 07:42:47;;;;;;;8.57;3.47;;;32.70;99.90;;;;;;5085893;28;20185;-74
2022/05/09 07:45:18;;;;;;;4.65;3.08;;;32.90;99.90;;;;;;5081638;28;20201;-75
2022/05/09 07:47:46;;;;;;;8.40;3.45;;;34.80;99.90;;;;;;5084424;27;20224;-75
2022/05/09 07:50:15;;;;;;;7.18;3.35;;;35.00;99.90;;;;;;5101097;27;20224;-74
2022/05/09 07:52:44;;;;;;;6.40;3.67;;;34.90;99.90;;;;;;5083399;28;20699;-74
2022/05/09 07:55:15;;;;;;;5.75;2.72;;;33.70;99.90;;;;;;5102025;27;20195;-75
2022/05/09 07:57:42;;;;;;;6.03;2.75;;;32.20;99.90;;;;;;5087058;27;20205;-75
2022/05/09 08:00:11;;;;;;;6.88;2.53;;;31.90;99.90;;;;;;5083502;28;20230;-74
2022/05/09 08:02:48;;;;;;;6.65;2.80;;;32.00;99.90;;;;;;5085567;28;20233;-76
2022/05/09 08:05:16;;;;;;;5.70;2.58;;;32.60;99.90;;;;;;5081615;28;20589;-75
2022/05/09 08:07:43;;;;;;;10.73;3.13;;;34.00;99.90;;;;;;5084777;28;20332;-74
2022/05/09 08:10:12;;;;;;;7.32;2.78;;;34.60;99.90;;;;;;5066435;28;20293;-75
2022/05/09 08:12:39;;;;;;;8.15;3.13;;;30.60;99.90;;;;;;5082610;28;20213;-75
2022/05/09 08:15:08;;;;;;;9.05;3.15;;;29.90;99.90;;;;;;5082359;28;20182;-75
2022/05/09 08:17:37;;;;;;;7.70;3.28;;;33.00;99.90;;;;;;5082692;28;20222;-74
2022/05/09 08:20:06;;;;;;;7.10;3.20;;;33.70;99.90;;;;;;5098402;28;20247;-75
2022/05/09 08:22:35;;;;;;;8.75;2.80;;;30.80;99.90;;;;;;5079520;28;20259;-74
2022/05/09 08:25:04;;;;;;;5.10;2.58;;;30.00;99.90;;;;;;5079694;28;20723;-75
2022/05/09 08:27:33;;;;;;;8.23;3.00;;;33.80;99.90;;;;;;5078899;28;20305;-75
2022/05/09 08:30:00;;;;;;;7.07;3.10;;;30.80;99.90;;;;;;5059627;28;20555;-75
2022/05/09 08:32:28;;;;;;;4.88;2.88;;;29.20;99.90;;;;;;5083545;28;20245;-77
2022/05/09 08:34:56;;;;;;;4.57;2.78;;;32.60;99.90;;;;;;5085244;28;20263;-76
2022/05/09 08:37:24;;;;;;;6.63;2.88;;;30.60;99.90;;;;;;5082503;28;20193;-74
2022/05/09 08:39:52;;;;;;;6.60;3.40;;;31.10;99.90;;;;;;5063655;28;20218;-74
2022/05/09 08:42:43;;;;;;;7.68;3.35;;;32.60;99.90;;;;;;5061538;28;20276;-76
2022/05/09 08:45:31;;;;;;;7.15;3.22;;;30.00;99.90;;;;;;5084310;28;20190;-76
2022/05/09 08:48:18;;;;;;;8.50;3.63;;;28.80;99.90;;;;;;5083114;28;20549;-73
2022/05/09 08:51:06;;;;;;;5.85;3.30;;;30.50;99.90;;;;;;5079712;28;20194;-75
2022/05/09 08:53:37;;;;;;;5.32;2.70;;;30.60;99.90;;;;;;5079662;28;20680;-74
2022/05/09 08:56:09;;;;;;;6.88;3.20;;;32.20;99.90;;;;;;5095325;28;20226;-74
2022/05/09 08:58:49;;;;;;;7.28;2.88;;;32.80;99.90;;;;;;5092656;27;20710;-75
2022/05/09 09:01:24;;;;;;;4.50;3.35;;;31.70;99.90;;;;;;5106113;27;20754;-75
2022/05/09 09:04:04;;;;;;;6.47;3.63;;;30.90;99.90;;;;;;5065409;27;20770;-74
2022/05/09 09:07:10;;;;;;;7.95;3.28;;;30.00;99.90;;;;;;5084977;27;20816;-74
2022/05/09 09:10:03;;;;;;;6.68;3.65;;;31.00;99.90;;;;;;5104433;27;20652;-75
2022/05/09 09:13:09;;;;;;;5.90;3.53;;;31.20;99.90;;;;;;5087323;28;20194;-74
2022/05/09 09:16:00;;;;;;;6.15;3.33;;;31.30;99.90;;;;;;5071953;27;20211;-75
2022/05/09 09:18:35;;;;;;;5.70;3.65;;;35.10;99.90;;;;;;5081244;27;20205;-75
2022/05/09 09:21:30;;;;;;;8.48;4.10;;;32.40;99.90;;;;;;5090141;28;20197;-75
2022/05/09 09:24:20;;;;;;;8.63;4.22;;;29.60;99.90;;;;;;5084173;27;20205;-75
2022/05/09 09:27:15;;;;;;;9.65;3.72;;;32.10;99.90;;;;;;5096742;27;20241;-75
2022/05/09 09:29:55;;;;;;;7.07;3.67;;;34.20;99.90;;;;;;5090712;27;20186;-74
2022/05/09 09:32:23;;;;;;;7.93;3.55;;;32.30;99.90;;;;;;5108041;27;20997;-74
2022/05/09 09:35:30;;;;;;;9.10;3.75;;;33.20;99.90;;;;;;5076695;28;20205;-77
2022/05/09 09:38:22;;;;;;;4.57;3.08;;;35.70;99.90;;;;;;5088698;27;20228;-75
2022/05/09 09:40:50;;;;;;;4.80;2.97;;;36.90;99.90;;;;;;5087351;27;20225;-75
2022/05/09 09:43:19;;;;;;;5.75;3.15;;;33.00;99.90;;;;;;5071636;27;20311;-76
2022/05/09 09:46:01;;;;;;;4.80;3.17;;;32.40;99.90;;;;;;5084616;28;20190;-75
2022/05/09 09:48:30;;;;;;;5.22;3.22;;;34.40;99.90;;;;;;5102328;27;20224;-76
2022/05/09 09:51:03;;;;;;;4.53;2.90;;;33.00;99.90;;;;;;5105037;27;20204;-75
2022/05/09 09:53:48;;;;;;;6.80;3.05;;;34.30;99.90;;;;;;5086153;27;20208;-74
2022/05/09 09:56:21;;;;;;;6.93;3.30;;;35.50;99.90;;;;;;5071619;27;20523;-74
2022/05/09 09:59:13;;;;;;;6.80;3.03;;;32.90;99.90;;;;;;5068549;27;20268;-74
2022/05/09 10:01:43;;;;;;;6.28;2.78;;;31.80;99.90;;;;;;5081048;28;20221;-74
2022/05/09 10:04:13;;;;;;;5.22;2.60;;;31.90;99.90;;;;;;5090472;28;20308;-74
2022/05/09 10:06:59;;;;;;;4.10;2.60;;;32.00;99.90;;;;;;5091982;27;20184;-75
2022/05/09 10:09:42;;;;;;;8.27;3.63;;;32.30;99.90;;;;;;5101457;27;20220;-74
2022/05/09 10:12:32;;;;;;;6.22;2.88;;;31.30;99.90;;;;;;5082096;27;20204;-75
2022/05/09 10:15:02;;;;;;;4.43;2.90;;;30.00;99.90;;;;;;5084547;27;20205;-75
2022/05/09 10:17:34;;;;;;;6.20;2.90;;;27.40;99.90;;;;;;5068185;28;20948;-75
2022/05/09 10:20:40;;;;;;;6.10;3.17;;;26.40;99.90;;;;;;5087738;28;20193;-75
2022/05/09 10:26:31;;;;;;;4.68;2.55;;;27.40;99.90;;;;;;5083930;27;20202;-75
2022/05/09 10:29:17;;;;;;;3.55;2.60;;;29.90;99.90;;;;;;5091338;27;20297;-76
2022/05/09 10:31:52;;;;;;;7.57;3.10;;;30.50;99.90;;;;;;5087443;27;20202;-74
2022/05/09 10:34:46;;;;;;;4.88;2.80;;;27.80;99.90;;;;;;5071168;27;20717;-74
2022/05/09 10:37:40;;;;;;;5.65;2.97;;;27.50;99.90;;;;;;5090065;27;20580;-73
2022/05/09 10:40:15;;;;;;;5.85;3.33;;;30.50;99.90;;;;;;5066037;28;20259;-74
2022/05/09 10:42:47;;;;;;;5.38;3.10;;;31.40;99.90;;;;;;5070905;28;20229;-76
2022/05/09 10:45:19;;;;;;;5.95;3.13;;;31.50;99.90;;;;;;5073842;27;20240;-74
2022/05/09 10:48:11;;;;;;;5.85;3.20;;;31.60;99.90;;;;;;5103154;27;20201;-74
2022/05/09 10:50:44;;;;;;;5.68;2.80;;;30.20;99.90;;;;;;5084642;27;20250;-76
2022/05/09 10:53:31;;;;;;;6.00;2.97;;;32.20;99.90;;;;;;5089180;27;20198;-76
2022/05/09 10:56:07;;;;;;;5.13;2.60;;;32.40;99.90;;;;;;5082223;27;20194;-76
2022/05/09 10:58:41;;;;;;;5.63;2.83;;;32.90;99.90;;;;;;5085268;28;20259;-73
2022/05/09 11:01:16;;;;;;;5.68;2.90;;;33.00;99.90;;;;;;5083753;28;20265;-75
2022/05/09 11:03:45;;;;;;;4.57;2.88;;;34.10;99.90;;;;;;5086815;28;20194;-74
2022/05/09 11:06:43;;;;;;;6.32;3.30;;;30.20;99.90;;;;;;5090170;28;21669;-76
2022/05/09 11:09:48;;;;;;;6.90;3.25;;;29.50;99.90;;;;;;5070629;28;20210;-74
2022/05/09 11:12:39;;;;;;;5.35;3.15;;;28.80;99.90;;;;;;5078902;28;20576;-74
2022/05/09 11:15:20;;;;;;;7.25;3.33;;;29.90;99.90;;;;;;5087660;28;20206;-73
2022/05/09 11:18:34;;;;;;;4.75;2.97;;;30.50;99.90;;;;;;5071402;28;20628;-75
2022/05/09 11:21:19;;;;;;;5.25;3.35;;;32.10;99.90;;;;;;5022140;28;21215;-75
2022/05/09 11:24:00;;;;;;;5.85;3.38;;;29.60;99.90;;;;;;4989238;28;20284;-78
2022/05/09 11:27:06;;;;;;;6.13;3.17;;;29.70;99.90;;;;;;5071400;28;20232;-74
2022/05/09 11:30:14;;;;;;;5.80;3.60;;;30.40;99.90;;;;;;5033940;28;20734;-74
2022/05/09 11:32:43;;;;;;;7.07;3.55;;;31.90;99.90;;;;;;5079233;28;20271;-74
2022/05/09 11:35:34;;;;;;;5.13;3.13;;;30.00;99.90;;;;;;5096272;28;20190;-74
2022/05/09 11:38:28;;;;;;;7.80;3.97;;;30.70;99.90;;;;;;5073645;28;20251;-74
2022/05/09 11:41:17;;;;;;;7.80;3.17;;;30.40;99.90;;;;;;5090394;28;20227;-74
2022/05/09 11:44:06;;;;;;;5.00;3.22;;;31.40;99.90;;;;;;5082349;28;20202;-75
2022/05/09 11:46:40;;;;;;;5.20;2.88;;;32.50;99.90;;;;;;5088058;28;20198;-74
2022/05/09 11:49:42;;;;;;;4.30;3.05;;;33.90;99.90;;;;;;5088721;28;20269;-74
2022/05/09 11:52:23;;;;;;;5.82;3.20;;;34.80;99.90;;;;;;5075929;28;20209;-74
2022/05/09 11:54:52;;;;;;;5.50;2.90;;;31.90;99.90;;;;;;5067329;28;20197;-73
2022/05/09 11:57:33;;;;;;;6.43;3.55;;;31.30;99.90;;;;;;5094246;28;20193;-73
2022/05/09 12:00:10;;;;;;;6.38;3.42;;;28.00;99.90;;;;;;5094028;28;20244;-74
2022/05/09 12:02:50;;;;;;;7.15;3.70;;;25.90;99.90;;;;;;5088163;28;20250;-75
2022/05/09 12:05:43;;;;;;;6.82;3.58;;;27.10;99.90;;;;;;5089572;28;20212;-74
2022/05/09 12:08:16;;;;;;;6.43;3.20;;;28.60;99.90;;;;;;5077707;28;20202;-75
2022/05/09 12:11:10;;;;;;;5.95;3.55;;;28.90;99.90;;;;;;5087467;28;20196;-75
2022/05/09 12:13:43;;;;;;;8.27;3.80;;;30.40;99.90;;;;;;5064960;28;20206;-77
2022/05/09 12:16:34;;;;;;;7.25;3.95;;;29.90;99.90;;;;;;5084136;28;20244;-75
2022/05/09 12:19:32;;;;;;;7.43;3.58;;;28.50;99.90;;;;;;5079883;28;20210;-75
2022/05/09 12:22:34;;;;;;;6.65;3.50;;;29.60;99.90;;;;;;5067915;28;20267;-77
2022/05/09 12:25:10;;;;;;;6.55;3.70;;;30.60;99.90;;;;;;5081186;28;20206;-75
2022/05/09 12:28:03;;;;;;;3.97;3.58;;;29.30;99.90;;;;;;5063920;28;20583;-76
2022/05/09 12:31:28;;;;;;;6.53;3.95;;;27.10;99.90;;;;;;5086777;28;20199;-76
2022/05/09 12:33:58;;;;;;;8.05;4.00;;;25.80;99.90;;;;;;4969396;28;20300;-76
2022/05/09 12:36:28;;;;;;;7.28;3.30;;;27.80;99.90;;;;;;4975347;28;20205;-76
2022/05/09 12:39:06;;;;;;;7.30;3.83;;;28.90;99.90;;;;;;5038650;27;20716;-75
2022/05/09 12:41:56;;;;;;;5.32;3.53;;;28.50;99.90;;;;;;5065935;28;20664;-76
2022/05/09 12:44:31;;;;;;;6.25;3.47;;;29.00;99.90;;;;;;5101414;28;20284;-76
2022/05/09 12:47:11;;;;;;;6.35;3.40;;;28.90;99.90;;;;;;5092923;28;20185;-76
2022/05/09 12:50:10;;;;;;;8.10;3.80;;;27.60;99.90;;;;;;5070549;28;20213;-76
2022/05/09 12:52:52;;;;;;;9.82;4.00;;;26.60;99.90;;;;;;5036875;28;20209;-76
2022/05/09 12:58:33;;;;;;;8.15;4.60;;;25.80;99.90;;;;;;5092817;27;20242;-77
2022/05/09 13:01:00;;;;;;;7.88;4.70;;;25.00;99.90;;;;;;5100213;27;20200;-78
2022/05/09 13:03:57;;;;;;;6.20;4.05;;;24.70;99.90;;;;;;5070360;28;20495;-78
2022/05/09 13:06:27;;;;;;;10.65;4.07;;;24.90;99.90;;;;;;5097473;27;20211;-77
2022/05/09 13:08:56;;;;;;;6.80;3.92;;;25.60;99.90;;;;;;5106889;27;20219;-80
2022/05/09 13:11:28;;;;;;;7.20;3.78;;;25.60;99.90;;;;;;5095062;27;20194;-77
2022/05/09 13:14:06;;;;;;;5.47;3.90;;;25.60;99.90;;;;;;5098601;28;20265;-79
2022/05/09 13:16:42;;;;;;;7.95;3.60;;;25.60;99.90;;;;;;5092829;27;20250;-78
2022/05/09 13:19:15;;;;;;;6.03;3.78;;;26.20;99.90;;;;;;5079017;27;20208;-79
2022/05/09 13:21:46;;;;;;;6.53;3.70;;;25.80;99.90;;;;;;5092297;27;20208;-79
2022/05/09 13:24:22;;;;;;;6.43;3.65;;;26.20;99.90;;;;;;5077253;27;20198;-76
2022/05/09 13:26:53;;;;;;;5.53;3.25;;;25.90;99.90;;;;;;5084311;27;20201;-79
2022/05/09 13:29:32;;;;;;;7.10;4.22;;;25.60;99.90;;;;;;5091333;27;20647;-79
2022/05/09 13:32:01;;;;;;;9.45;4.25;;;25.10;99.90;;;;;;5092301;27;20206;-78
2022/05/09 13:34:32;;;;;;;7.63;3.70;;;24.60;99.90;;;;;;5077634;27;20292;-78
2022/05/09 13:37:03;;;;;;;7.95;3.95;;;25.00;99.90;;;;;;5110673;27;20883;-78
2022/05/09 13:39:32;;;;;;;5.15;3.85;;;25.70;99.90;;;;;;5080165;27;20263;-78
2022/05/09 13:42:17;;;;;;;8.93;4.18;;;25.30;99.90;;;;;;5090965;27;20223;-77
2022/05/09 13:44:47;;;;;;;6.30;4.00;;;24.80;99.90;;;;;;5091319;27;20198;-78